createdAt,value
2019-04-14T00:00:03.687Z,9.83
2019-04-14T00:02:38.406Z,10.10
2019-04-14T00:05:08.279Z,9.77
2019-04-14T00:07:36.293Z,9.03
2019-04-14T00:10:07.117Z,9.67
2019-04-14T00:12:34.481Z,9.10
2019-04-14T00:15:02.496Z,9.67
2019-04-14T00:17:30.620Z,9.73
2019-04-14T00:19:58.800Z,10.10
2019-04-14T00:22:28.065Z,10.30
2019-04-14T00:24:55.662Z,9.20
2019-04-14T00:27:23.610Z,10.03
2019-04-14T00:29:51.010Z,9.97
2019-04-14T00:32:18.353Z,9.60
2019-04-14T00:35:21.022Z,10.70
2019-04-14T00:38:19.919Z,9.53
2019-04-14T00:40:54.446Z,9.17
2019-04-14T00:43:43.914Z,9.60
2019-04-14T00:46:17.398Z,10.37
2019-04-14T00:48:45.876Z,10.13
2019-04-14T00:51:13.470Z,9.40
2019-04-14T00:53:41.061Z,9.00
2019-04-14T00:56:10.492Z,9.30
2019-04-14T00:58:39.070Z,8.83
2019-04-14T01:01:06.956Z,9.33
2019-04-14T01:03:35.162Z,8.73
2019-04-14T01:06:03.251Z,8.87
2019-04-14T01:08:31.433Z,9.10
2019-04-14T01:10:58.892Z,9.17
2019-04-14T01:13:26.763Z,9.03
2019-04-14T01:16:00.774Z,8.23
2019-04-14T01:18:23.584Z,8.90
2019-04-14T01:20:51.418Z,8.50
2019-04-14T01:23:19.346Z,8.67
2019-04-14T01:25:47.734Z,8.33
2019-04-14T01:28:15.844Z,8.57
2019-04-14T01:30:43.735Z,8.20
2019-04-14T01:33:11.907Z,8.97
2019-04-14T01:35:40.001Z,9.33
2019-04-14T01:38:08.001Z,8.83
2019-04-14T01:40:35.949Z,7.97
2019-04-14T01:43:03.803Z,8.20
2019-04-14T01:45:31.722Z,8.27
2019-04-14T01:47:59.590Z,8.03
2019-04-14T01:50:45.253Z,8.07
2019-04-14T01:53:22.894Z,8.63
2019-04-14T01:55:59.568Z,8.63
2019-04-14T01:58:31.654Z,8.83
2019-04-14T02:01:19.564Z,9.50
2019-04-14T02:03:47.782Z,9.17
2019-04-14T02:06:15.770Z,9.03
2019-04-14T02:08:43.663Z,8.77
2019-04-14T02:11:12.222Z,8.97
2019-04-14T02:13:39.718Z,8.30
2019-04-14T02:16:18.477Z,8.83
2019-04-14T02:18:38.386Z,7.67
2019-04-14T02:21:06.442Z,8.53
2019-04-14T02:23:34.385Z,9.50
2019-04-14T02:26:02.264Z,9.13
2019-04-14T02:28:30.927Z,8.53
2019-04-14T02:31:10.483Z,8.90
2019-04-14T02:33:55.202Z,8.33
2019-04-14T02:36:41.561Z,9.23
2019-04-14T02:41:30.018Z,8.67
2019-04-14T02:44:00.049Z,8.47
2019-04-14T02:46:20.485Z,8.17
2019-04-14T02:51:21.120Z,7.80
2019-04-14T02:53:51.306Z,7.80
2019-04-14T02:56:23.835Z,8.07
2019-04-14T03:01:31.641Z,8.33
2019-04-14T03:03:43.450Z,9.13
2019-04-14T03:06:16.243Z,9.23
2019-04-14T03:11:11.825Z,8.17
2019-04-14T03:13:45.551Z,8.13
2019-04-14T03:16:17.513Z,8.43
2019-04-14T03:19:16.912Z,8.73
2019-04-14T03:22:06.893Z,8.90
2019-04-14T03:24:37.158Z,8.50
2019-04-14T03:27:31.178Z,8.70
2019-04-14T03:30:33.547Z,8.63
2019-04-14T03:33:05.273Z,9.10
2019-04-14T03:35:44.087Z,8.10
2019-04-14T03:40:13.912Z,8.63
2019-04-14T03:42:45.799Z,9.00
2019-04-14T03:45:09.319Z,8.93
2019-04-14T03:47:34.699Z,8.00
2019-04-14T03:50:06.155Z,9.17
2019-04-14T03:52:43.794Z,9.47
2019-04-14T03:54:56.779Z,10.50
2019-04-14T03:57:10.834Z,9.57
2019-04-14T03:59:39.110Z,9.60
2019-04-14T04:02:07.455Z,10.87
2019-04-14T04:04:36.186Z,9.27
2019-04-14T04:07:03.885Z,10.10
2019-04-14T04:09:36.435Z,10.13
2019-04-14T04:12:05.178Z,9.60
2019-04-14T04:14:33.448Z,10.73
2019-04-14T04:17:16.962Z,10.97
2019-04-14T04:19:49.271Z,10.20
2019-04-14T04:22:35.360Z,10.30
2019-04-14T04:25:20.684Z,10.20
2019-04-14T04:28:05.987Z,9.70
2019-04-14T04:30:56.415Z,9.40
2019-04-14T04:33:30.582Z,10.60
2019-04-14T04:36:05.252Z,9.70
2019-04-14T04:38:53.307Z,9.70
2019-04-14T04:41:21.011Z,9.53
2019-04-14T04:43:49.400Z,9.23
2019-04-14T04:46:17.690Z,9.67
2019-04-14T04:48:58.271Z,9.70
2019-04-14T04:51:14.457Z,9.40
2019-04-14T04:53:41.994Z,10.03
2019-04-14T04:56:10.045Z,9.53
2019-04-14T04:58:37.489Z,9.17
2019-04-14T05:01:05.872Z,9.43
2019-04-14T05:03:34.001Z,10.27
2019-04-14T05:06:48.429Z,8.90
2019-04-14T05:09:21.038Z,9.03
2019-04-14T05:12:06.704Z,9.63
2019-04-14T05:14:41.781Z,10.20
2019-04-14T05:17:10.178Z,9.73
2019-04-14T05:19:39.329Z,9.40
2019-04-14T05:22:07.013Z,10.33
2019-04-14T05:24:35.349Z,9.57
2019-04-14T05:27:03.619Z,9.63
2019-04-14T05:29:31.832Z,9.10
2019-04-14T05:32:00.131Z,8.33
2019-04-14T05:34:28.343Z,9.30
2019-04-14T05:36:56.390Z,9.23
2019-04-14T05:39:24.299Z,8.90
2019-04-14T05:42:00.479Z,9.77
2019-04-14T05:44:23.161Z,8.80
2019-04-14T05:46:51.415Z,9.03
2019-04-14T05:49:28.690Z,8.47
2019-04-14T05:51:48.291Z,9.20
2019-04-14T05:54:16.325Z,9.57
2019-04-14T05:56:44.732Z,9.67
2019-04-14T05:59:13.422Z,9.73
2019-04-14T06:01:42.103Z,8.27
2019-04-14T06:04:09.589Z,8.77
2019-04-14T06:06:36.983Z,8.57
2019-04-14T06:09:05.912Z,8.67
2019-04-14T06:11:33.305Z,9.00
2019-04-14T06:14:01.394Z,9.57
2019-04-14T06:16:29.336Z,8.63
2019-04-14T06:18:56.815Z,9.47
2019-04-14T06:21:24.263Z,8.97
2019-04-14T06:23:51.663Z,8.87
2019-04-14T06:26:19.145Z,9.47
2019-04-14T06:28:48.351Z,8.47
2019-04-14T06:31:27.086Z,8.73
2019-04-14T06:33:59.725Z,9.00
2019-04-14T06:36:38.147Z,9.97
2019-04-14T06:39:09.821Z,9.13
2019-04-14T06:41:38.482Z,9.17
2019-04-14T06:44:05.858Z,8.37
2019-04-14T06:46:33.135Z,9.83
2019-04-14T06:49:00.464Z,8.70
2019-04-14T06:51:27.935Z,9.40
2019-04-14T06:53:55.340Z,9.43
2019-04-14T06:56:22.626Z,9.97
2019-04-14T06:58:49.814Z,9.97
2019-04-14T07:01:17.136Z,9.30
2019-04-14T07:03:44.471Z,10.13
2019-04-14T07:06:11.755Z,9.63
2019-04-14T07:08:39.091Z,9.83
2019-04-14T07:11:06.413Z,9.70
2019-04-14T07:13:33.726Z,9.80
2019-04-14T07:16:01.033Z,9.20
2019-04-14T07:18:28.383Z,9.97
2019-04-14T07:20:55.788Z,9.90
2019-04-14T07:23:23.077Z,9.57
2019-04-14T07:25:50.453Z,9.43
2019-04-14T07:28:17.749Z,10.20
2019-04-14T07:31:04.709Z,9.93
2019-04-14T07:33:40.700Z,9.80
2019-04-14T07:36:17.784Z,10.03
2019-04-14T07:38:52.309Z,9.63
2019-04-14T07:41:28.675Z,10.87
2019-04-14T07:44:15.646Z,10.27
2019-04-14T07:46:55.559Z,10.70
2019-04-14T07:49:42.706Z,10.40
2019-04-14T07:52:22.265Z,10.53
2019-04-14T07:55:02.856Z,10.47
2019-04-14T07:57:41.531Z,11.03
2019-04-14T08:00:12.927Z,10.37
2019-04-14T08:02:44.770Z,10.87
2019-04-14T08:05:16.019Z,10.23
2019-04-14T08:07:45.019Z,11.60
2019-04-14T08:10:13.703Z,11.03
2019-04-14T08:12:41.173Z,11.47
2019-04-14T08:15:09.885Z,11.33
2019-04-14T08:17:37.269Z,11.30
2019-04-14T08:20:05.486Z,12.20
2019-04-14T08:22:32.947Z,12.17
2019-04-14T08:25:00.269Z,11.50
2019-04-14T08:27:27.683Z,10.80
2019-04-14T08:29:55.182Z,11.37
2019-04-14T08:32:22.638Z,11.83
2019-04-14T08:34:50.034Z,10.80
2019-04-14T08:37:18.291Z,12.87
2019-04-14T08:39:45.793Z,11.73
2019-04-14T08:42:29.861Z,13.70
2019-04-14T08:44:59.621Z,13.00
2019-04-14T08:47:36.213Z,12.63
2019-04-14T08:50:15.271Z,12.37
2019-04-14T08:52:54.298Z,13.70
2019-04-14T08:55:26.922Z,12.57
2019-04-14T08:57:59.121Z,13.30
2019-04-14T09:00:52.217Z,13.60
2019-04-14T09:03:39.387Z,13.97
2019-04-14T09:06:20.205Z,12.00
2019-04-14T09:08:56.043Z,14.13
2019-04-14T09:11:29.214Z,14.50
2019-04-14T09:13:56.644Z,15.10
2019-04-14T09:16:24.337Z,15.03
2019-04-14T09:18:53.670Z,19.57
2019-04-14T09:21:21.159Z,19.73
2019-04-14T09:23:48.691Z,23.57
2019-04-14T09:26:16.348Z,23.10
2019-04-14T09:28:43.745Z,21.63
2019-04-14T09:31:11.214Z,22.70
2019-04-14T09:33:38.579Z,22.87
2019-04-14T09:36:05.885Z,25.10
2019-04-14T09:38:33.196Z,25.50
2019-04-14T09:41:00.628Z,28.03
2019-04-14T09:43:28.006Z,28.80
2019-04-14T09:45:55.381Z,27.87
2019-04-14T09:48:23.918Z,28.40
2019-04-14T09:51:03.957Z,29.33
2019-04-14T09:53:20.768Z,30.30
2019-04-14T09:55:48.431Z,27.77
2019-04-14T09:58:15.950Z,27.77
2019-04-14T10:00:43.492Z,27.90
2019-04-14T10:03:11.323Z,27.10
2019-04-14T10:05:38.710Z,30.07
2019-04-14T10:08:06.123Z,30.07
2019-04-14T10:10:33.590Z,28.10
2019-04-14T10:13:02.903Z,33.07
2019-04-14T10:15:31.352Z,30.33
2019-04-14T10:17:58.710Z,27.03
2019-04-14T10:20:27.319Z,24.07
2019-04-14T10:22:54.622Z,23.43
2019-04-14T10:25:22.018Z,22.43
2019-04-14T10:27:49.420Z,21.10
2019-04-14T10:30:16.917Z,20.80
2019-04-14T10:32:46.063Z,20.23
2019-04-14T10:35:13.483Z,22.17
2019-04-14T10:37:40.804Z,21.63
2019-04-14T10:40:08.430Z,19.93
2019-04-14T10:42:36.034Z,19.63
2019-04-14T10:45:04.276Z,17.83
2019-04-14T10:47:31.971Z,19.50
2019-04-14T10:49:59.493Z,19.40
2019-04-14T10:52:26.841Z,19.80
2019-04-14T10:54:54.253Z,18.83
2019-04-14T10:57:21.640Z,19.03
2019-04-14T10:59:49.050Z,20.17
2019-04-14T11:02:16.549Z,18.63
2019-04-14T11:04:45.895Z,16.53
2019-04-14T11:07:21.746Z,15.23
2019-04-14T11:09:49.202Z,15.97
2019-04-14T11:12:16.654Z,17.10
2019-04-14T11:14:44.110Z,17.03
2019-04-14T11:17:11.447Z,16.57
2019-04-14T11:19:38.875Z,17.20
2019-04-14T11:22:06.255Z,16.73
2019-04-14T11:24:33.533Z,16.63
2019-04-14T11:27:00.927Z,16.97
2019-04-14T11:29:28.293Z,17.30
2019-04-14T11:32:15.362Z,18.00
2019-04-14T11:34:47.811Z,18.20
2019-04-14T11:37:44.148Z,16.50
2019-04-14T11:40:14.048Z,16.37
2019-04-14T11:42:51.832Z,16.47
2019-04-14T11:45:10.965Z,17.37
2019-04-14T11:47:38.396Z,17.73
2019-04-14T11:50:05.823Z,17.30
2019-04-14T11:52:35.669Z,16.17
2019-04-14T11:55:02.802Z,17.90
2019-04-14T11:57:30.326Z,16.73
2019-04-14T12:00:11.018Z,16.30
2019-04-14T12:02:51.278Z,16.43
2019-04-14T12:05:26.253Z,15.20
2019-04-14T12:08:05.761Z,16.00
2019-04-14T12:10:33.841Z,15.60
2019-04-14T12:13:01.327Z,15.03
2019-04-14T12:15:28.742Z,16.47
2019-04-14T12:17:56.039Z,16.50
2019-04-14T12:20:23.533Z,16.97
2019-04-14T12:22:51.117Z,15.53
2019-04-14T12:25:18.511Z,15.47
2019-04-14T12:27:46.533Z,14.87
2019-04-14T12:30:15.735Z,15.13
2019-04-14T12:32:43.231Z,14.23
2019-04-14T12:35:11.956Z,15.27
2019-04-14T12:37:39.511Z,16.10
2019-04-14T12:40:07.408Z,14.83
2019-04-14T12:42:53.095Z,13.67
2019-04-14T12:45:39.362Z,14.37
2019-04-14T12:48:32.286Z,12.87
2019-04-14T12:51:09.882Z,12.17
2019-04-14T12:53:37.245Z,12.13
2019-04-14T12:56:05.656Z,12.53
2019-04-14T12:58:40.858Z,14.23
2019-04-14T13:01:10.358Z,13.90
2019-04-14T13:03:41.729Z,12.73
2019-04-14T13:06:08.615Z,11.33
2019-04-14T13:08:36.091Z,12.37
2019-04-14T13:11:04.914Z,12.07
2019-04-14T13:13:32.362Z,10.77
2019-04-14T13:15:59.964Z,10.60
2019-04-14T13:18:27.378Z,12.50
2019-04-14T13:20:54.952Z,11.27
2019-04-14T13:23:22.312Z,10.97
2019-04-14T13:25:49.644Z,9.50
2019-04-14T13:28:16.905Z,9.70
2019-04-14T13:30:46.083Z,9.93
2019-04-14T13:33:13.585Z,10.13
2019-04-14T13:35:40.892Z,10.00
2019-04-14T13:38:08.363Z,11.40
2019-04-14T13:40:35.799Z,10.47
2019-04-14T13:43:03.256Z,9.70
2019-04-14T13:45:30.652Z,8.23
2019-04-14T13:47:58.074Z,9.07
2019-04-14T13:50:25.525Z,9.07
2019-04-14T13:52:52.903Z,9.63
2019-04-14T13:55:20.337Z,9.30
2019-04-14T13:57:47.694Z,9.53
2019-04-14T14:00:15.591Z,9.70
2019-04-14T14:02:43.082Z,8.30
2019-04-14T14:05:10.615Z,8.70
2019-04-14T14:07:38.171Z,10.80
2019-04-14T14:10:07.637Z,10.23
2019-04-14T14:12:55.030Z,9.73
2019-04-14T14:15:37.853Z,9.13
2019-04-14T14:18:27.953Z,8.37
2019-04-14T14:21:15.502Z,7.80
2019-04-14T14:23:53.172Z,7.83
2019-04-14T14:26:22.078Z,7.80
2019-04-14T14:28:49.600Z,8.67
2019-04-14T14:31:36.617Z,7.27
2019-04-14T14:34:05.951Z,7.00
2019-04-14T14:36:34.902Z,7.27
2019-04-14T14:39:04.605Z,7.57
2019-04-14T14:41:33.505Z,8.23
2019-04-14T14:44:00.997Z,8.47
2019-04-14T14:46:41.547Z,8.97
2019-04-14T14:49:13.640Z,7.37
2019-04-14T14:52:06.804Z,7.80
2019-04-14T14:54:34.326Z,7.70
2019-04-14T14:57:01.964Z,8.37
2019-04-14T14:59:29.452Z,8.43
2019-04-14T15:01:56.971Z,8.10
2019-04-14T15:04:24.526Z,9.93
2019-04-14T15:06:52.023Z,10.33
2019-04-14T15:09:19.407Z,10.70
2019-04-14T15:11:47.912Z,10.90
2019-04-14T15:14:17.197Z,10.47
2019-04-14T15:16:44.867Z,10.30
2019-04-14T15:19:12.219Z,9.43
2019-04-14T15:21:41.292Z,9.93
2019-04-14T15:24:08.647Z,10.53
2019-04-14T15:26:36.330Z,10.17
2019-04-14T15:29:03.987Z,10.67
2019-04-14T15:31:31.667Z,9.87
2019-04-14T15:33:59.311Z,9.90
2019-04-14T15:36:28.081Z,9.70
2019-04-14T15:38:56.874Z,9.33
2019-04-14T15:41:24.433Z,9.83
2019-04-14T15:43:52.209Z,9.17
2019-04-14T15:46:19.933Z,9.70
2019-04-14T15:48:47.518Z,9.87
2019-04-14T15:51:15.059Z,8.27
2019-04-14T15:53:42.703Z,10.40
2019-04-14T15:56:12.820Z,9.33
2019-04-14T15:59:03.135Z,9.47
2019-04-14T16:01:40.535Z,9.70
2019-04-14T16:04:18.205Z,10.47
2019-04-14T16:07:05.337Z,11.17
2019-04-14T16:09:38.087Z,18.80
2019-04-14T16:12:16.846Z,12.10
2019-04-14T16:15:19.233Z,11.60
2019-04-14T16:18:06.708Z,12.00
2019-04-14T16:20:36.219Z,11.63
2019-04-14T16:23:03.962Z,12.27
2019-04-14T16:25:40.953Z,12.13
2019-04-14T16:28:28.789Z,11.87
2019-04-14T16:31:14.617Z,11.80
2019-04-14T16:34:10.535Z,13.67
2019-04-14T16:36:38.211Z,13.03
2019-04-14T16:39:06.240Z,14.40
2019-04-14T16:41:34.388Z,15.47
2019-04-14T16:44:02.269Z,16.70
2019-04-14T16:46:30.004Z,15.10
2019-04-14T16:48:57.422Z,16.13
2019-04-14T16:51:32.487Z,15.33
2019-04-14T16:54:06.429Z,18.20
2019-04-14T16:57:02.388Z,16.60
2019-04-14T16:59:30.069Z,17.87
2019-04-14T17:02:10.196Z,17.70
2019-04-14T17:04:26.949Z,18.73
2019-04-14T17:06:54.271Z,18.27
2019-04-14T17:09:21.750Z,19.20
2019-04-14T17:11:49.327Z,18.97
2019-04-14T17:14:36.231Z,18.73
2019-04-14T17:17:23.155Z,18.60
2019-04-14T17:20:09.206Z,17.60
2019-04-14T17:23:05.546Z,16.67
2019-04-14T17:25:36.706Z,17.40
2019-04-14T17:28:18.621Z,17.17
2019-04-14T17:30:58.079Z,16.30
2019-04-14T17:33:33.348Z,15.63
2019-04-14T17:36:10.416Z,16.33
2019-04-14T17:38:56.491Z,16.30
2019-04-14T17:41:42.012Z,16.03
2019-04-14T17:44:25.139Z,16.10
2019-04-14T17:47:05.884Z,15.53
2019-04-14T17:49:48.399Z,16.67
2019-04-14T17:52:53.987Z,15.13
2019-04-14T17:55:34.672Z,17.63
2019-04-14T17:58:15.293Z,16.90
2019-04-14T18:00:52.236Z,17.23
2019-04-14T18:03:36.270Z,18.00
2019-04-14T18:06:13.817Z,17.87
2019-04-14T18:09:00.236Z,17.70
2019-04-14T18:11:48.023Z,18.13
2019-04-14T18:14:30.220Z,17.77
2019-04-14T18:17:22.940Z,16.93
2019-04-14T18:20:00.563Z,18.50
2019-04-14T18:22:27.956Z,18.47
2019-04-14T18:24:55.341Z,18.97
2019-04-14T18:27:22.759Z,19.37
2019-04-14T18:29:58.530Z,18.80
2019-04-14T18:32:54.943Z,19.87
2019-04-14T18:35:27.881Z,17.80
2019-04-14T18:38:06.477Z,17.13
2019-04-14T18:40:53.599Z,18.33
2019-04-14T18:43:43.216Z,17.23
2019-04-14T18:46:19.943Z,17.97
2019-04-14T18:49:06.747Z,18.17
2019-04-14T18:51:41.274Z,18.10
2019-04-14T18:54:27.637Z,18.70
2019-04-14T18:57:14.790Z,18.47
2019-04-14T18:59:56.218Z,18.03
2019-04-14T19:02:24.121Z,17.87
2019-04-14T19:04:51.567Z,17.57
2019-04-14T19:07:19.286Z,16.47
2019-04-14T19:09:46.826Z,17.33
2019-04-14T19:12:37.467Z,17.37
2019-04-14T19:15:15.525Z,16.23
2019-04-14T19:17:52.649Z,17.67
2019-04-14T19:20:20.906Z,17.13
2019-04-14T19:22:48.350Z,16.50
2019-04-14T19:25:15.692Z,16.93
2019-04-14T19:27:43.024Z,18.13
2019-04-14T19:30:10.842Z,16.93
2019-04-14T19:32:38.313Z,16.87
2019-04-14T19:35:06.125Z,18.57
2019-04-14T19:37:35.424Z,16.93
2019-04-14T19:40:03.420Z,18.60
2019-04-14T19:42:31.091Z,18.93
2019-04-14T19:44:58.554Z,18.43
2019-04-14T19:47:25.882Z,18.57
2019-04-14T19:49:53.350Z,17.77
2019-04-14T19:52:20.831Z,17.93
2019-04-14T19:54:48.230Z,17.27
2019-04-14T19:57:15.753Z,18.03
2019-04-14T19:59:43.172Z,17.33
2019-04-14T20:02:10.671Z,17.40
2019-04-14T20:04:38.420Z,15.87
2019-04-14T20:07:05.895Z,16.50
2019-04-14T20:09:33.363Z,16.57
2019-04-14T20:12:00.911Z,16.40
2019-04-14T20:14:28.456Z,16.60
2019-04-14T20:17:20.014Z,16.50
2019-04-14T20:20:14.221Z,16.63
2019-04-14T20:22:49.893Z,16.37
2019-04-14T20:25:33.246Z,16.10
2019-04-14T20:28:15.054Z,17.10
2019-04-14T20:30:46.269Z,16.07
2019-04-14T20:33:13.686Z,17.10
2019-04-14T20:35:41.109Z,15.93
2019-04-14T20:38:08.571Z,16.93
2019-04-14T20:40:36.128Z,17.00
2019-04-14T20:43:03.540Z,16.17
2019-04-14T20:45:31.036Z,16.17
2019-04-14T20:48:00.254Z,16.10
2019-04-14T20:50:27.664Z,16.53
2019-04-14T20:52:56.796Z,15.97
2019-04-14T20:55:24.192Z,16.40
2019-04-14T20:57:51.592Z,16.23
2019-04-14T21:00:21.276Z,16.80
2019-04-14T21:03:12.483Z,15.53
2019-04-14T21:05:55.477Z,15.70
2019-04-14T21:08:41.363Z,16.23
2019-04-14T21:11:14.448Z,16.80
2019-04-14T21:14:01.902Z,16.33
2019-04-14T21:16:50.171Z,17.17
2019-04-14T21:19:21.799Z,16.97
2019-04-14T21:22:14.926Z,16.73
2019-04-14T21:24:51.089Z,16.67
2019-04-14T21:27:38.208Z,16.23
2019-04-14T21:30:43.732Z,17.07
2019-04-14T21:33:28.375Z,17.70
2019-04-14T21:36:01.306Z,17.60
2019-04-14T21:38:46.899Z,17.07
2019-04-14T21:41:18.663Z,16.63
2019-04-14T21:43:46.092Z,16.23
2019-04-14T21:46:13.519Z,17.47
2019-04-14T21:48:41.951Z,16.40
2019-04-14T21:51:09.238Z,17.00
2019-04-14T21:53:36.659Z,18.40
2019-04-14T21:56:13.331Z,17.47
2019-04-14T21:58:43.753Z,17.33
2019-04-14T22:01:54.979Z,17.07
2019-04-14T22:04:41.323Z,18.47
2019-04-14T22:07:36.972Z,16.70
2019-04-14T22:10:18.708Z,17.30
2019-04-14T22:12:47.352Z,18.63
2019-04-14T22:15:14.807Z,17.63
2019-04-14T22:17:42.108Z,17.73
2019-04-14T22:20:09.623Z,17.03
2019-04-14T22:22:36.999Z,16.47
2019-04-14T22:25:04.884Z,16.80
2019-04-14T22:27:32.282Z,17.30
2019-04-14T22:29:59.577Z,18.47
2019-04-14T22:32:26.951Z,17.50
2019-04-14T22:34:54.261Z,16.47
2019-04-14T22:37:21.613Z,17.50
2019-04-14T22:39:50.177Z,16.53
2019-04-14T22:42:17.570Z,17.30
2019-04-14T22:44:45.015Z,17.90
2019-04-14T22:47:13.785Z,18.20
2019-04-14T22:49:41.160Z,17.63
2019-04-14T22:52:08.622Z,18.17
2019-04-14T22:54:36.024Z,18.37
2019-04-14T22:57:03.656Z,18.63
2019-04-14T22:59:30.956Z,18.23
2019-04-14T23:02:10.618Z,17.93
2019-04-14T23:04:48.140Z,19.43
2019-04-14T23:07:33.580Z,17.97
2019-04-14T23:10:08.015Z,18.27
2019-04-14T23:13:07.155Z,18.10
2019-04-14T23:15:53.108Z,18.47
2019-04-14T23:18:26.692Z,18.53
2019-04-14T23:21:12.644Z,18.60
2019-04-14T23:23:54.291Z,19.33
2019-04-14T23:26:23.051Z,18.07
2019-04-14T23:28:50.376Z,19.40
2019-04-14T23:31:17.793Z,18.37
2019-04-14T23:33:45.245Z,18.73
2019-04-14T23:36:12.672Z,18.03
2019-04-14T23:38:39.991Z,19.33
2019-04-14T23:41:07.310Z,18.93
2019-04-14T23:43:35.007Z,19.47
2019-04-14T23:46:02.400Z,20.10
2019-04-14T23:48:29.805Z,20.33
2019-04-14T23:50:58.563Z,19.50
2019-04-14T23:53:25.846Z,20.23
2019-04-14T23:55:54.332Z,20.43
2019-04-14T23:58:21.824Z,18.90
